sensor_id;sensor_type;location;lat;lon;timestamp;temperature;humidity
21031;DHT22;61072;47.808;7.636;2022-12-18T00:01:27;-3.50;99.90
21031;DHT22;61072;47.808;7.636;2022-12-18T00:03:55;-3.50;99.90
21031;DHT22;61072;47.808;7.636;2022-12-18T00:06:24;-3.40;99.90
21031;DHT22;61072;47.808;7.636;2022-12-18T00:08:51;-3.40;99.90
21031;DHT22;61072;47.808;7.636;2022-12-18T00:11:20;-3.50;99.90
21031;DHT22;61072;47.808;7.636;2022-12-18T00:13:47;-3.50;99.90
21031;DHT22;61072;47.808;7.636;2022-12-18T00:16:17;-3.60;99.90
21031;DHT22;61072;47.808;7.636;2022-12-18T00:18:47;-3.60;99.90
21031;DHT22;61072;47.808;7.636;2022-12-18T00:21:15;-3.60;99.90
21031;DHT22;61072;47.808;7.636;2022-12-18T00:23:43;-3.50;99.90
21031;DHT22;61072;47.808;7.636;2022-12-18T00:26:19;-3.50;99.90
21031;DHT22;61072;47.808;7.636;2022-12-18T00:28:46;-3.50;99.90
21031;DHT22;61072;47.808;7.636;2022-12-18T00:31:16;-3.50;99.90
21031;DHT22;61072;47.808;7.636;2022-12-18T00:33:43;-3.50;99.90
21031;DHT22;61072;47.808;7.636;2022-12-18T00:38:38;-3.60;99.90
21031;DHT22;61072;47.808;7.636;2022-12-18T00:41:07;-3.60;99.90
21031;DHT22;61072;47.808;7.636;2022-12-18T00:43:34;-3.70;99.90
21031;DHT22;61072;47.808;7.636;2022-12-18T00:46:01;-3.80;99.90
21031;DHT22;61072;47.808;7.636;2022-12-18T00:48:28;-3.90;99.90
21031;DHT22;61072;47.808;7.636;2022-12-18T00:50:54;-4.00;99.90
21031;DHT22;61072;47.808;7.636;2022-12-18T00:53:21;-4.00;99.90
21031;DHT22;61072;47.808;7.636;2022-12-18T00:55:48;-4.10;99.90
21031;DHT22;61072;47.808;7.636;2022-12-18T00:58:16;-4.20;99.90
21031;DHT22;61072;47.808;7.636;2022-12-18T01:00:43;-4.20;99.90
21031;DHT22;61072;47.808;7.636;2022-12-18T01:03:13;-4.10;99.90
21031;DHT22;61072;47.808;7.636;2022-12-18T01:05:41;-4.10;99.90
21031;DHT22;61072;47.808;7.636;2022-12-18T01:08:08;-4.40;99.90
21031;DHT22;61072;47.808;7.636;2022-12-18T01:10:35;-4.40;99.90
21031;DHT22;61072;47.808;7.636;2022-12-18T01:13:01;-4.30;99.90
21031;DHT22;61072;47.808;7.636;2022-12-18T01:15:28;-4.40;99.90
21031;DHT22;61072;47.808;7.636;2022-12-18T01:17:55;-4.40;99.90
21031;DHT22;61072;47.808;7.636;2022-12-18T01:20:21;-4.40;99.90
21031;DHT22;61072;47.808;7.636;2022-12-18T01:22:48;-4.40;99.90
21031;DHT22;61072;47.808;7.636;2022-12-18T01:25:15;-4.50;99.90
21031;DHT22;61072;47.808;7.636;2022-12-18T01:27:41;-4.50;99.90
21031;DHT22;61072;47.808;7.636;2022-12-18T01:30:08;-4.60;99.90
21031;DHT22;61072;47.808;7.636;2022-12-18T01:32:35;-4.60;99.90
21031;DHT22;61072;47.808;7.636;2022-12-18T01:35:02;-4.60;99.90
21031;DHT22;61072;47.808;7.636;2022-12-18T01:37:29;-4.60;99.90
21031;DHT22;61072;47.808;7.636;2022-12-18T01:39:56;-4.60;99.90
21031;DHT22;61072;47.808;7.636;2022-12-18T01:42:23;-4.50;99.90
21031;DHT22;61072;47.808;7.636;2022-12-18T01:50:17;-4.80;99.90
21031;DHT22;61072;47.808;7.636;2022-12-18T01:52:48;-4.80;99.90
21031;DHT22;61072;47.808;7.636;2022-12-18T01:55:17;-4.80;99.90
21031;DHT22;61072;47.808;7.636;2022-12-18T01:57:44;-4.80;99.90
21031;DHT22;61072;47.808;7.636;2022-12-18T02:00:16;-4.70;99.90
21031;DHT22;61072;47.808;7.636;2022-12-18T02:02:45;-4.70;99.90
21031;DHT22;61072;47.808;7.636;2022-12-18T02:05:16;-4.70;99.90
21031;DHT22;61072;47.808;7.636;2022-12-18T02:07:51;-4.60;99.90
21031;DHT22;61072;47.808;7.636;2022-12-18T02:10:31;-4.60;99.90
21031;DHT22;61072;47.808;7.636;2022-12-18T02:13:30;-4.50;99.90
21031;DHT22;61072;47.808;7.636;2022-12-18T02:16:07;-4.40;99.90
21031;DHT22;61072;47.808;7.636;2022-12-18T02:18:40;-4.40;99.90
21031;DHT22;61072;47.808;7.636;2022-12-18T02:26:43;-4.30;99.90
21031;DHT22;61072;47.808;7.636;2022-12-18T02:29:18;-4.30;99.90
21031;DHT22;61072;47.808;7.636;2022-12-18T02:31:56;-4.30;99.90
21031;DHT22;61072;47.808;7.636;2022-12-18T02:34:28;-4.40;99.90
21031;DHT22;61072;47.808;7.636;2022-12-18T02:36:57;-4.50;99.90
21031;DHT22;61072;47.808;7.636;2022-12-18T02:39:26;-4.50;99.90
21031;DHT22;61072;47.808;7.636;2022-12-18T02:41:53;-4.50;99.90
21031;DHT22;61072;47.808;7.636;2022-12-18T02:44:20;-4.50;99.90
21031;DHT22;61072;47.808;7.636;2022-12-18T02:46:50;-4.40;99.90
21031;DHT22;61072;47.808;7.636;2022-12-18T02:51:55;-4.40;99.90
21031;DHT22;61072;47.808;7.636;2022-12-18T03:05:17;-4.60;99.90
21031;DHT22;61072;47.808;7.636;2022-12-18T03:08:00;-4.70;99.90
21031;DHT22;61072;47.808;7.636;2022-12-18T03:10:32;-4.60;99.90
21031;DHT22;61072;47.808;7.636;2022-12-18T03:13:07;-4.50;99.90
21031;DHT22;61072;47.808;7.636;2022-12-18T03:15:39;-4.50;99.90
21031;DHT22;61072;47.808;7.636;2022-12-18T03:18:12;-4.40;99.90
21031;DHT22;61072;47.808;7.636;2022-12-18T03:20:43;-4.40;99.90
21031;DHT22;61072;47.808;7.636;2022-12-18T03:23:15;-4.30;99.90
21031;DHT22;61072;47.808;7.636;2022-12-18T03:25:44;-4.20;99.90
21031;DHT22;61072;47.808;7.636;2022-12-18T03:28:15;-4.20;99.90
21031;DHT22;61072;47.808;7.636;2022-12-18T03:30:45;-4.30;99.90
21031;DHT22;61072;47.808;7.636;2022-12-18T03:33:25;-4.30;99.90
21031;DHT22;61072;47.808;7.636;2022-12-18T03:35:54;-4.30;99.90
21031;DHT22;61072;47.808;7.636;2022-12-18T03:38:21;-4.30;99.90
21031;DHT22;61072;47.808;7.636;2022-12-18T03:40:57;-4.30;99.90
21031;DHT22;61072;47.808;7.636;2022-12-18T03:43:34;-4.30;99.90
21031;DHT22;61072;47.808;7.636;2022-12-18T03:46:08;-4.30;99.90
21031;DHT22;61072;47.808;7.636;2022-12-18T03:48:55;-4.30;99.90
21031;DHT22;61072;47.808;7.636;2022-12-18T03:51:34;-4.30;99.90
21031;DHT22;61072;47.808;7.636;2022-12-18T03:54:04;-4.20;99.90
21031;DHT22;61072;47.808;7.636;2022-12-18T03:56:37;-4.20;99.90
21031;DHT22;61072;47.808;7.636;2022-12-18T03:59:06;-4.10;99.90
21031;DHT22;61072;47.808;7.636;2022-12-18T04:01:39;-4.10;99.90
21031;DHT22;61072;47.808;7.636;2022-12-18T04:04:08;-4.10;99.90
21031;DHT22;61072;47.808;7.636;2022-12-18T04:06:37;-4.00;99.90
21031;DHT22;61072;47.808;7.636;2022-12-18T04:09:04;-4.10;99.90
21031;DHT22;61072;47.808;7.636;2022-12-18T04:11:31;-4.10;99.90
21031;DHT22;61072;47.808;7.636;2022-12-18T04:13:58;-4.10;99.90
21031;DHT22;61072;47.808;7.636;2022-12-18T04:16:28;-4.10;99.90
21031;DHT22;61072;47.808;7.636;2022-12-18T04:18:55;-4.10;99.90
21031;DHT22;61072;47.808;7.636;2022-12-18T04:21:22;-4.10;99.90
21031;DHT22;61072;47.808;7.636;2022-12-18T04:23:49;-4.10;99.90
21031;DHT22;61072;47.808;7.636;2022-12-18T04:26:16;-4.10;99.90
21031;DHT22;61072;47.808;7.636;2022-12-18T04:28:43;-4.10;99.90
21031;DHT22;61072;47.808;7.636;2022-12-18T04:31:09;-4.10;99.90
21031;DHT22;61072;47.808;7.636;2022-12-18T04:33:36;-4.10;99.90
21031;DHT22;61072;47.808;7.636;2022-12-18T04:36:04;-4.20;99.90
21031;DHT22;61072;47.808;7.636;2022-12-18T04:38:31;-4.20;99.90
21031;DHT22;61072;47.808;7.636;2022-12-18T04:40:58;-4.30;99.90
21031;DHT22;61072;47.808;7.636;2022-12-18T04:43:25;-4.30;99.90
21031;DHT22;61072;47.808;7.636;2022-12-18T04:45:52;-4.30;99.90
21031;DHT22;61072;47.808;7.636;2022-12-18T04:48:19;-4.30;99.90
21031;DHT22;61072;47.808;7.636;2022-12-18T04:50:47;-4.20;99.90
21031;DHT22;61072;47.808;7.636;2022-12-18T04:53:14;-4.30;99.90
21031;DHT22;61072;47.808;7.636;2022-12-18T04:55:41;-4.30;99.90
21031;DHT22;61072;47.808;7.636;2022-12-18T04:58:07;-4.20;99.90
21031;DHT22;61072;47.808;7.636;2022-12-18T05:00:35;-4.30;99.90
21031;DHT22;61072;47.808;7.636;2022-12-18T05:03:02;-4.30;99.90
21031;DHT22;61072;47.808;7.636;2022-12-18T05:05:29;-4.30;99.90
21031;DHT22;61072;47.808;7.636;2022-12-18T05:07:56;-4.20;99.90
21031;DHT22;61072;47.808;7.636;2022-12-18T05:10:22;-4.20;99.90
21031;DHT22;61072;47.808;7.636;2022-12-18T05:12:49;-4.20;99.90
21031;DHT22;61072;47.808;7.636;2022-12-18T05:15:28;-4.20;99.90
21031;DHT22;61072;47.808;7.636;2022-12-18T05:17:56;-4.20;99.90
21031;DHT22;61072;47.808;7.636;2022-12-18T05:20:24;-4.30;99.90
21031;DHT22;61072;47.808;7.636;2022-12-18T05:22:51;-4.30;99.90
21031;DHT22;61072;47.808;7.636;2022-12-18T05:25:18;-4.30;99.90
21031;DHT22;61072;47.808;7.636;2022-12-18T05:27:46;-4.30;99.90
21031;DHT22;61072;47.808;7.636;2022-12-18T05:30:13;-4.30;99.90
21031;DHT22;61072;47.808;7.636;2022-12-18T05:32:40;-4.20;99.90
21031;DHT22;61072;47.808;7.636;2022-12-18T05:35:09;-4.20;99.90
21031;DHT22;61072;47.808;7.636;2022-12-18T05:37:36;-4.30;99.90
21031;DHT22;61072;47.808;7.636;2022-12-18T05:40:09;-4.30;99.90
21031;DHT22;61072;47.808;7.636;2022-12-18T05:42:36;-4.30;99.90
21031;DHT22;61072;47.808;7.636;2022-12-18T05:45:03;-4.30;99.90
21031;DHT22;61072;47.808;7.636;2022-12-18T05:47:30;-4.40;99.90
21031;DHT22;61072;47.808;7.636;2022-12-18T05:49:57;-4.30;99.90
21031;DHT22;61072;47.808;7.636;2022-12-18T05:52:24;-4.30;99.90
21031;DHT22;61072;47.808;7.636;2022-12-18T05:54:51;-4.30;99.90
21031;DHT22;61072;47.808;7.636;2022-12-18T05:57:17;-4.40;99.90
21031;DHT22;61072;47.808;7.636;2022-12-18T05:59:44;-4.40;99.90
21031;DHT22;61072;47.808;7.636;2022-12-18T06:02:11;-4.40;99.90
21031;DHT22;61072;47.808;7.636;2022-12-18T06:04:38;-4.40;99.90
21031;DHT22;61072;47.808;7.636;2022-12-18T06:07:04;-4.40;99.90
21031;DHT22;61072;47.808;7.636;2022-12-18T06:09:31;-4.40;99.90
21031;DHT22;61072;47.808;7.636;2022-12-18T06:11:58;-4.50;99.90
21031;DHT22;61072;47.808;7.636;2022-12-18T06:14:25;-4.40;99.90
21031;DHT22;61072;47.808;7.636;2022-12-18T06:16:52;-4.50;99.90
21031;DHT22;61072;47.808;7.636;2022-12-18T06:19:19;-4.50;99.90
21031;DHT22;61072;47.808;7.636;2022-12-18T06:21:46;-4.50;99.90
21031;DHT22;61072;47.808;7.636;2022-12-18T06:24:13;-4.50;99.90
21031;DHT22;61072;47.808;7.636;2022-12-18T06:26:40;-4.50;99.90
21031;DHT22;61072;47.808;7.636;2022-12-18T06:29:06;-4.50;99.90
21031;DHT22;61072;47.808;7.636;2022-12-18T06:31:33;-4.60;99.90
21031;DHT22;61072;47.808;7.636;2022-12-18T06:34:03;-4.60;99.90
21031;DHT22;61072;47.808;7.636;2022-12-18T06:36:30;-4.60;99.90
21031;DHT22;61072;47.808;7.636;2022-12-18T06:38:57;-4.60;99.90
21031;DHT22;61072;47.808;7.636;2022-12-18T06:41:24;-4.70;99.90
21031;DHT22;61072;47.808;7.636;2022-12-18T06:43:50;-4.60;99.90
21031;DHT22;61072;47.808;7.636;2022-12-18T06:46:23;-4.60;99.90
21031;DHT22;61072;47.808;7.636;2022-12-18T06:48:50;-4.60;99.90
21031;DHT22;61072;47.808;7.636;2022-12-18T06:51:19;-4.60;99.90
21031;DHT22;61072;47.808;7.636;2022-12-18T06:53:46;-4.60;99.90
21031;DHT22;61072;47.808;7.636;2022-12-18T06:56:13;-4.50;99.90
21031;DHT22;61072;47.808;7.636;2022-12-18T06:58:39;-4.50;99.90
21031;DHT22;61072;47.808;7.636;2022-12-18T07:01:09;-4.50;99.90
21031;DHT22;61072;47.808;7.636;2022-12-18T07:03:38;-4.50;99.90
21031;DHT22;61072;47.808;7.636;2022-12-18T07:06:05;-4.40;99.90
21031;DHT22;61072;47.808;7.636;2022-12-18T07:08:33;-4.40;99.90
21031;DHT22;61072;47.808;7.636;2022-12-18T07:11:03;-4.40;99.90
21031;DHT22;61072;47.808;7.636;2022-12-18T07:13:30;-4.40;99.90
21031;DHT22;61072;47.808;7.636;2022-12-18T07:16:08;-4.40;99.90
21031;DHT22;61072;47.808;7.636;2022-12-18T07:18:44;-4.40;99.90
21031;DHT22;61072;47.808;7.636;2022-12-18T07:21:13;-4.40;99.90
21031;DHT22;61072;47.808;7.636;2022-12-18T07:23:41;-4.40;99.90
21031;DHT22;61072;47.808;7.636;2022-12-18T07:26:10;-4.30;99.90
21031;DHT22;61072;47.808;7.636;2022-12-18T07:28:38;-4.30;99.90
21031;DHT22;61072;47.808;7.636;2022-12-18T07:31:16;-4.30;99.90
21031;DHT22;61072;47.808;7.636;2022-12-18T07:33:44;-4.30;99.90
21031;DHT22;61072;47.808;7.636;2022-12-18T07:36:11;-4.40;99.90
21031;DHT22;61072;47.808;7.636;2022-12-18T07:38:39;-4.40;99.90
21031;DHT22;61072;47.808;7.636;2022-12-18T07:41:10;-4.40;99.90
21031;DHT22;61072;47.808;7.636;2022-12-18T07:43:38;-4.50;99.90
21031;DHT22;61072;47.808;7.636;2022-12-18T07:46:08;-4.40;99.90
21031;DHT22;61072;47.808;7.636;2022-12-18T07:48:35;-4.50;99.90
21031;DHT22;61072;47.808;7.636;2022-12-18T07:51:03;-4.50;99.90
21031;DHT22;61072;47.808;7.636;2022-12-18T07:53:31;-4.50;99.90
21031;DHT22;61072;47.808;7.636;2022-12-18T07:56:00;-4.50;99.90
21031;DHT22;61072;47.808;7.636;2022-12-18T07:58:47;-4.50;99.90
21031;DHT22;61072;47.808;7.636;2022-12-18T08:01:14;-4.50;99.90
21031;DHT22;61072;47.808;7.636;2022-12-18T08:03:41;-4.40;99.90
21031;DHT22;61072;47.808;7.636;2022-12-18T08:06:09;-4.40;99.90
21031;DHT22;61072;47.808;7.636;2022-12-18T08:08:36;-4.40;99.90
21031;DHT22;61072;47.808;7.636;2022-12-18T08:11:03;-4.50;99.90
21031;DHT22;61072;47.808;7.636;2022-12-18T08:13:30;-4.50;99.90
21031;DHT22;61072;47.808;7.636;2022-12-18T08:16:03;-4.50;99.90
21031;DHT22;61072;47.808;7.636;2022-12-18T08:18:32;-4.40;99.90
21031;DHT22;61072;47.808;7.636;2022-12-18T08:21:11;-4.30;99.90
21031;DHT22;61072;47.808;7.636;2022-12-18T08:23:39;-4.30;99.90
21031;DHT22;61072;47.808;7.636;2022-12-18T08:26:10;-4.30;99.90
21031;DHT22;61072;47.808;7.636;2022-12-18T08:28:37;-4.30;99.90
21031;DHT22;61072;47.808;7.636;2022-12-18T08:31:04;-4.20;99.90
21031;DHT22;61072;47.808;7.636;2022-12-18T08:33:32;-4.20;99.90
21031;DHT22;61072;47.808;7.636;2022-12-18T08:36:00;-4.30;99.90
21031;DHT22;61072;47.808;7.636;2022-12-18T08:38:27;-4.20;99.90
21031;DHT22;61072;47.808;7.636;2022-12-18T08:41:00;-4.20;99.90
21031;DHT22;61072;47.808;7.636;2022-12-18T08:43:28;-4.20;99.90
21031;DHT22;61072;47.808;7.636;2022-12-18T08:46:15;-4.20;99.90
21031;DHT22;61072;47.808;7.636;2022-12-18T08:48:43;-4.30;99.90
21031;DHT22;61072;47.808;7.636;2022-12-18T08:51:10;-4.40;99.90
21031;DHT22;61072;47.808;7.636;2022-12-18T08:53:39;-4.60;99.90
21031;DHT22;61072;47.808;7.636;2022-12-18T08:56:07;-4.60;99.90
21031;DHT22;61072;47.808;7.636;2022-12-18T08:58:35;-4.60;99.90
21031;DHT22;61072;47.808;7.636;2022-12-18T09:01:07;-4.70;99.90
21031;DHT22;61072;47.808;7.636;2022-12-18T09:03:35;-4.80;99.90
21031;DHT22;61072;47.808;7.636;2022-12-18T09:06:04;-4.70;99.90
21031;DHT22;61072;47.808;7.636;2022-12-18T09:08:31;-4.70;99.90
21031;DHT22;61072;47.808;7.636;2022-12-18T09:10:58;-4.70;99.90
21031;DHT22;61072;47.808;7.636;2022-12-18T09:13:26;-4.80;99.90
21031;DHT22;61072;47.808;7.636;2022-12-18T09:15:54;-4.80;99.90
21031;DHT22;61072;47.808;7.636;2022-12-18T09:18:23;-4.80;99.90
21031;DHT22;61072;47.808;7.636;2022-12-18T09:20:50;-4.90;99.90
21031;DHT22;61072;47.808;7.636;2022-12-18T09:23:19;-4.90;99.90
21031;DHT22;61072;47.808;7.636;2022-12-18T09:25:49;-4.90;99.90
21031;DHT22;61072;47.808;7.636;2022-12-18T09:28:17;-4.90;99.90
21031;DHT22;61072;47.808;7.636;2022-12-18T09:30:47;-4.90;99.90
21031;DHT22;61072;47.808;7.636;2022-12-18T09:33:16;-4.80;99.90
21031;DHT22;61072;47.808;7.636;2022-12-18T09:35:44;-4.70;99.90
21031;DHT22;61072;47.808;7.636;2022-12-18T09:38:14;-4.60;99.90
21031;DHT22;61072;47.808;7.636;2022-12-18T09:40:45;-4.50;99.90
21031;DHT22;61072;47.808;7.636;2022-12-18T09:43:24;-4.40;99.90
21031;DHT22;61072;47.808;7.636;2022-12-18T09:46:01;-4.40;99.90
21031;DHT22;61072;47.808;7.636;2022-12-18T09:48:36;-4.30;99.90
21031;DHT22;61072;47.808;7.636;2022-12-18T09:51:13;-4.40;99.90
21031;DHT22;61072;47.808;7.636;2022-12-18T09:53:45;-4.40;99.90
21031;DHT22;61072;47.808;7.636;2022-12-18T09:56:17;-4.30;99.90
21031;DHT22;61072;47.808;7.636;2022-12-18T09:58:52;-4.20;99.90
21031;DHT22;61072;47.808;7.636;2022-12-18T10:01:22;-4.00;99.90
21031;DHT22;61072;47.808;7.636;2022-12-18T10:03:50;-4.00;99.90
21031;DHT22;61072;47.808;7.636;2022-12-18T10:12:07;-3.80;99.90
21031;DHT22;61072;47.808;7.636;2022-12-18T10:20:09;-3.90;99.90
21031;DHT22;61072;47.808;7.636;2022-12-18T10:26:05;-4.00;99.90
21031;DHT22;61072;47.808;7.636;2022-12-18T10:28:36;-4.00;99.90
21031;DHT22;61072;47.808;7.636;2022-12-18T10:31:16;-4.00;99.90
21031;DHT22;61072;47.808;7.636;2022-12-18T10:33:44;-3.90;99.90
21031;DHT22;61072;47.808;7.636;2022-12-18T10:36:11;-3.80;99.90
21031;DHT22;61072;47.808;7.636;2022-12-18T10:38:38;-3.80;99.90
21031;DHT22;61072;47.808;7.636;2022-12-18T10:41:34;-3.70;99.90
21031;DHT22;61072;47.808;7.636;2022-12-18T10:46:47;-3.50;99.90
21031;DHT22;61072;47.808;7.636;2022-12-18T10:49:34;-3.50;99.90
21031;DHT22;61072;47.808;7.636;2022-12-18T10:52:15;-3.50;99.90
21031;DHT22;61072;47.808;7.636;2022-12-18T10:55:12;-3.30;99.90
21031;DHT22;61072;47.808;7.636;2022-12-18T10:57:39;-3.30;99.90
21031;DHT22;61072;47.808;7.636;2022-12-18T11:00:29;-3.40;99.90
21031;DHT22;61072;47.808;7.636;2022-12-18T11:02:57;-3.50;99.90
21031;DHT22;61072;47.808;7.636;2022-12-18T11:05:29;-3.40;99.90
21031;DHT22;61072;47.808;7.636;2022-12-18T11:07:58;-3.40;99.90
21031;DHT22;61072;47.808;7.636;2022-12-18T11:10:36;-3.30;99.90
21031;DHT22;61072;47.808;7.636;2022-12-18T11:13:18;-3.30;99.90
21031;DHT22;61072;47.808;7.636;2022-12-18T11:15:46;-3.30;99.90
21031;DHT22;61072;47.808;7.636;2022-12-18T11:18:33;-3.30;99.90
21031;DHT22;61072;47.808;7.636;2022-12-18T11:21:09;-3.30;99.90
21031;DHT22;61072;47.808;7.636;2022-12-18T11:23:37;-3.20;99.90
21031;DHT22;61072;47.808;7.636;2022-12-18T11:26:11;-3.20;99.90
21031;DHT22;61072;47.808;7.636;2022-12-18T11:28:52;-3.20;99.90
21031;DHT22;61072;47.808;7.636;2022-12-18T11:31:33;-3.10;99.90
21031;DHT22;61072;47.808;7.636;2022-12-18T11:36:55;-2.90;99.90
21031;DHT22;61072;47.808;7.636;2022-12-18T11:39:37;-2.90;99.90
21031;DHT22;61072;47.808;7.636;2022-12-18T11:42:16;-2.90;99.90
21031;DHT22;61072;47.808;7.636;2022-12-18T11:44:52;-2.90;99.90
21031;DHT22;61072;47.808;7.636;2022-12-18T11:49:51;-2.90;99.90
21031;DHT22;61072;47.808;7.636;2022-12-18T11:52:25;-2.90;99.90
21031;DHT22;61072;47.808;7.636;2022-12-18T11:54:56;-3.00;99.90
21031;DHT22;61072;47.808;7.636;2022-12-18T12:02:52;-3.10;99.90
21031;DHT22;61072;47.808;7.636;2022-12-18T12:05:46;-3.10;99.90
21031;DHT22;61072;47.808;7.636;2022-12-18T12:08:37;-3.10;99.90
21031;DHT22;61072;47.808;7.636;2022-12-18T12:11:24;-2.90;99.90
21031;DHT22;61072;47.808;7.636;2022-12-18T12:16:51;-2.90;99.90
21031;DHT22;61072;47.808;7.636;2022-12-18T12:22:18;-2.80;99.90
21031;DHT22;61072;47.808;7.636;2022-12-18T12:25:03;-2.80;99.90
21031;DHT22;61072;47.808;7.636;2022-12-18T12:27:47;-2.70;99.90
21031;DHT22;61072;47.808;7.636;2022-12-18T12:30:29;-2.50;99.90
21031;DHT22;61072;47.808;7.636;2022-12-18T12:33:11;-2.60;99.90
21031;DHT22;61072;47.808;7.636;2022-12-18T12:38:42;-2.50;99.90
21031;DHT22;61072;47.808;7.636;2022-12-18T12:41:19;-2.40;99.90
21031;DHT22;61072;47.808;7.636;2022-12-18T12:44:09;-2.50;99.90
21031;DHT22;61072;47.808;7.636;2022-12-18T12:46:41;-2.40;99.90
21031;DHT22;61072;47.808;7.636;2022-12-18T12:49:35;-2.40;99.90
21031;DHT22;61072;47.808;7.636;2022-12-18T12:52:12;-2.30;99.90
21031;DHT22;61072;47.808;7.636;2022-12-18T12:54:41;-2.30;99.90
21031;DHT22;61072;47.808;7.636;2022-12-18T12:57:13;-2.30;99.90
21031;DHT22;61072;47.808;7.636;2022-12-18T13:02:52;-2.20;99.90
21031;DHT22;61072;47.808;7.636;2022-12-18T13:08:03;-2.20;99.90
21031;DHT22;61072;47.808;7.636;2022-12-18T13:13:12;-2.10;99.90
21031;DHT22;61072;47.808;7.636;2022-12-18T13:15:47;-2.10;99.90
21031;DHT22;61072;47.808;7.636;2022-12-18T13:18:17;-2.10;99.90
21031;DHT22;61072;47.808;7.636;2022-12-18T13:20:50;-2.10;99.90
21031;DHT22;61072;47.808;7.636;2022-12-18T13:23:33;-2.00;99.90
21031;DHT22;61072;47.808;7.636;2022-12-18T13:34:15;-1.80;99.90
21031;DHT22;61072;47.808;7.636;2022-12-18T13:36:53;-1.60;99.90
21031;DHT22;61072;47.808;7.636;2022-12-18T13:44:39;-1.50;99.90
21031;DHT22;61072;47.808;7.636;2022-12-18T13:47:46;-1.50;99.90
21031;DHT22;61072;47.808;7.636;2022-12-18T13:50:25;-1.50;99.90
21031;DHT22;61072;47.808;7.636;2022-12-18T13:53:21;-1.40;99.90
21031;DHT22;61072;47.808;7.636;2022-12-18T13:55:49;-1.40;99.90
21031;DHT22;61072;47.808;7.636;2022-12-18T13:58:16;-1.30;99.90
21031;DHT22;61072;47.808;7.636;2022-12-18T14:00:47;-1.20;99.90
21031;DHT22;61072;47.808;7.636;2022-12-18T14:03:21;-1.20;99.90
21031;DHT22;61072;47.808;7.636;2022-12-18T14:06:07;-1.20;99.90
21031;DHT22;61072;47.808;7.636;2022-12-18T14:08:41;-1.20;99.90
21031;DHT22;61072;47.808;7.636;2022-12-18T14:11:20;-1.20;99.90
21031;DHT22;61072;47.808;7.636;2022-12-18T14:13:48;-1.20;99.90
21031;DHT22;61072;47.808;7.636;2022-12-18T14:16:16;-1.20;99.90
21031;DHT22;61072;47.808;7.636;2022-12-18T14:18:55;-1.30;99.90
21031;DHT22;61072;47.808;7.636;2022-12-18T14:21:45;-1.30;99.90
21031;DHT22;61072;47.808;7.636;2022-12-18T14:24:18;-1.30;99.90
21031;DHT22;61072;47.808;7.636;2022-12-18T14:26:46;-1.30;99.90
21031;DHT22;61072;47.808;7.636;2022-12-18T14:29:29;-1.40;99.90
21031;DHT22;61072;47.808;7.636;2022-12-18T14:34:43;-1.40;99.90
21031;DHT22;61072;47.808;7.636;2022-12-18T14:37:11;-1.40;99.90
21031;DHT22;61072;47.808;7.636;2022-12-18T14:39:38;-1.50;99.90
21031;DHT22;61072;47.808;7.636;2022-12-18T14:42:05;-1.50;99.90
21031;DHT22;61072;47.808;7.636;2022-12-18T14:44:32;-1.60;99.90
21031;DHT22;61072;47.808;7.636;2022-12-18T14:47:16;-1.60;99.90
21031;DHT22;61072;47.808;7.636;2022-12-18T14:49:43;-1.60;99.90
21031;DHT22;61072;47.808;7.636;2022-12-18T14:52:26;-1.70;99.90
21031;DHT22;61072;47.808;7.636;2022-12-18T14:54:54;-1.70;99.90
21031;DHT22;61072;47.808;7.636;2022-12-18T14:57:25;-1.70;99.90
21031;DHT22;61072;47.808;7.636;2022-12-18T15:00:05;-1.70;99.90
21031;DHT22;61072;47.808;7.636;2022-12-18T15:02:35;-1.60;99.90
21031;DHT22;61072;47.808;7.636;2022-12-18T15:05:25;-1.60;99.90
21031;DHT22;61072;47.808;7.636;2022-12-18T15:07:54;-1.60;99.90
21031;DHT22;61072;47.808;7.636;2022-12-18T15:10:23;-1.60;99.90
21031;DHT22;61072;47.808;7.636;2022-12-18T15:13:07;-1.60;99.90
21031;DHT22;61072;47.808;7.636;2022-12-18T15:18:04;-1.60;99.90
21031;DHT22;61072;47.808;7.636;2022-12-18T15:20:40;-1.50;99.90
21031;DHT22;61072;47.808;7.636;2022-12-18T15:23:20;-1.50;99.90
21031;DHT22;61072;47.808;7.636;2022-12-18T15:26:00;-1.50;99.90
21031;DHT22;61072;47.808;7.636;2022-12-18T15:28:37;-1.40;99.90
21031;DHT22;61072;47.808;7.636;2022-12-18T15:33:37;-1.40;99.90
21031;DHT22;61072;47.808;7.636;2022-12-18T15:36:09;-1.40;99.90
21031;DHT22;61072;47.808;7.636;2022-12-18T15:38:36;-1.40;99.90
21031;DHT22;61072;47.808;7.636;2022-12-18T15:41:03;-1.40;99.90
21031;DHT22;61072;47.808;7.636;2022-12-18T15:43:37;-1.40;99.90
21031;DHT22;61072;47.808;7.636;2022-12-18T15:46:16;-1.40;99.90
21031;DHT22;61072;47.808;7.636;2022-12-18T15:48:46;-1.50;99.90
21031;DHT22;61072;47.808;7.636;2022-12-18T15:51:14;-1.50;99.90
21031;DHT22;61072;47.808;7.636;2022-12-18T15:53:42;-1.60;99.90
21031;DHT22;61072;47.808;7.636;2022-12-18T15:56:14;-1.50;99.90
21031;DHT22;61072;47.808;7.636;2022-12-18T15:59:01;-1.50;99.90
21031;DHT22;61072;47.808;7.636;2022-12-18T16:01:30;-1.50;99.90
21031;DHT22;61072;47.808;7.636;2022-12-18T16:03:57;-1.50;99.90
21031;DHT22;61072;47.808;7.636;2022-12-18T16:06:24;-1.50;99.90
21031;DHT22;61072;47.808;7.636;2022-12-18T16:08:51;-1.60;99.90
21031;DHT22;61072;47.808;7.636;2022-12-18T16:11:22;-1.60;99.90
21031;DHT22;61072;47.808;7.636;2022-12-18T16:16:45;-1.60;99.90
21031;DHT22;61072;47.808;7.636;2022-12-18T16:19:12;-1.60;99.90
21031;DHT22;61072;47.808;7.636;2022-12-18T16:21:39;-1.60;99.90
21031;DHT22;61072;47.808;7.636;2022-12-18T16:24:14;-1.60;99.90
21031;DHT22;61072;47.808;7.636;2022-12-18T16:26:42;-1.60;99.90
21031;DHT22;61072;47.808;7.636;2022-12-18T16:29:09;-1.60;99.90
21031;DHT22;61072;47.808;7.636;2022-12-18T16:31:38;-1.60;99.90
21031;DHT22;61072;47.808;7.636;2022-12-18T16:34:17;-1.60;99.90
21031;DHT22;61072;47.808;7.636;2022-12-18T16:36:49;-1.60;99.90
21031;DHT22;61072;47.808;7.636;2022-12-18T16:39:17;-1.60;99.90
21031;DHT22;61072;47.808;7.636;2022-12-18T16:41:43;-1.60;99.90
21031;DHT22;61072;47.808;7.636;2022-12-18T16:44:10;-1.60;99.90
21031;DHT22;61072;47.808;7.636;2022-12-18T16:46:37;-1.60;99.90
21031;DHT22;61072;47.808;7.636;2022-12-18T16:49:05;-1.50;99.90
21031;DHT22;61072;47.808;7.636;2022-12-18T16:51:32;-1.50;99.90
21031;DHT22;61072;47.808;7.636;2022-12-18T16:53:58;-1.50;99.90
21031;DHT22;61072;47.808;7.636;2022-12-18T16:56:25;-1.50;99.90
21031;DHT22;61072;47.808;7.636;2022-12-18T16:58:57;-1.50;99.90
21031;DHT22;61072;47.808;7.636;2022-12-18T17:01:27;-1.50;99.90
21031;DHT22;61072;47.808;7.636;2022-12-18T17:04:00;-1.50;99.90
21031;DHT22;61072;47.808;7.636;2022-12-18T17:06:29;-1.50;99.90
21031;DHT22;61072;47.808;7.636;2022-12-18T17:09:00;-1.60;99.90
21031;DHT22;61072;47.808;7.636;2022-12-18T17:11:28;-1.60;99.90
21031;DHT22;61072;47.808;7.636;2022-12-18T17:13:56;-1.50;99.90
21031;DHT22;61072;47.808;7.636;2022-12-18T17:16:24;-1.60;99.90
21031;DHT22;61072;47.808;7.636;2022-12-18T17:18:52;-1.60;99.90
21031;DHT22;61072;47.808;7.636;2022-12-18T17:21:19;-1.50;99.90
21031;DHT22;61072;47.808;7.636;2022-12-18T17:23:46;-1.50;99.90
21031;DHT22;61072;47.808;7.636;2022-12-18T17:26:12;-1.50;99.90
21031;DHT22;61072;47.808;7.636;2022-12-18T17:28:40;-1.50;99.90
21031;DHT22;61072;47.808;7.636;2022-12-18T17:31:19;-1.50;99.90